Time;durP1;ratioP1;P1;durP2;ratioP2;P2;SDS_P1;SDS_P2;PMS_P1;PMS_P2;Temp;Humidity;BMP_temperature;BMP_pressure;BME280_temperature;BME280_humidity;BME280_pressure;Samples;Min_cycle;Max_cycle;Signal;HPM_P1;HPM_P2
2023/06/08 00:00:00;;;;;;;11.95;6.07;;;;;;;17.74;60.92;101581.16;3581175;40;20057;-67
2023/06/08 00:02:28;;;;;;;12.98;6.15;;;;;;;17.72;60.83;101579.53;3586160;39;20052;-66
2023/06/08 00:04:54;;;;;;;12.18;5.50;;;;;;;17.67;60.88;101574.47;3583784;39;20068;-67
2023/06/08 00:07:21;;;;;;;10.88;5.63;;;;;;;17.52;60.88;101562.97;3588699;39;20384;-66
2023/06/08 00:09:47;;;;;;;11.32;6.00;;;;;;;16.98;60.68;101479.38;3587376;39;20068;-66
2023/06/08 00:12:13;;;;;;;13.75;6.70;;;;;;;17.50;61.52;101572.22;3584394;39;20055;-67
2023/06/08 00:14:39;;;;;;;14.35;6.47;;;;;;;17.45;61.63;101571.75;3582446;39;20095;-67
2023/06/08 00:17:08;;;;;;;12.45;6.18;;;;;;;17.15;61.66;101529.66;3584711;39;20103;-66
2023/06/08 00:19:38;;;;;;;10.40;5.97;;;;;;;17.35;61.32;101563.44;3581308;39;20050;-66
2023/06/08 00:22:07;;;;;;;12.48;5.90;;;;;;;17.29;62.23;101567.50;3586934;39;20063;-67
2023/06/08 00:24:34;;;;;;;13.63;6.30;;;;;;;17.28;61.81;101568.47;3587444;39;20462;-66
2023/06/08 00:27:00;;;;;;;13.43;6.10;;;;;;;17.03;61.45;101528.81;3582774;39;20053;-67
2023/06/08 00:29:27;;;;;;;9.52;6.05;;;;;;;17.23;62.34;101559.84;3584855;39;20123;-67
2023/06/08 00:31:53;;;;;;;11.68;6.70;;;;;;;17.20;61.69;101562.78;3580480;39;20070;-68
2023/06/08 00:34:19;;;;;;;12.73;6.35;;;;;;;17.10;62.00;101553.63;3583244;39;20262;-66
2023/06/08 00:36:45;;;;;;;12.32;6.65;;;;;;;17.06;62.37;101558.44;3583920;39;20402;-68
2023/06/08 00:39:12;;;;;;;11.18;6.80;;;;;;;16.90;62.46;101531.59;3585866;39;20130;-68
2023/06/08 00:41:38;;;;;;;13.00;6.22;;;;;;;17.11;62.85;101568.94;3583118;39;20064;-68
2023/06/08 00:44:06;;;;;;;16.13;6.75;;;;;;;17.10;62.39;101570.78;3581696;39;20060;-68
2023/06/08 00:46:33;;;;;;;11.95;6.68;;;;;;;17.09;62.54;101557.31;3584930;39;20329;-68
2023/06/08 00:48:59;;;;;;;12.70;7.10;;;;;;;17.06;62.56;101557.53;3582647;39;20067;-68
2023/06/08 00:51:33;;;;;;;12.57;6.68;;;;;;;17.04;62.74;101549.53;3586018;39;20051;-68
2023/06/08 00:54:00;;;;;;;13.55;6.57;;;;;;;16.93;62.80;101542.19;3584548;39;20379;-68
2023/06/08 00:56:31;;;;;;;12.80;6.88;;;;;;;16.82;62.93;101527.75;3584809;39;20056;-67
2023/06/08 00:59:00;;;;;;;13.15;6.50;;;;;;;16.99;63.59;101550.88;3582099;39;20056;-68
2023/06/08 01:01:30;;;;;;;13.73;6.90;;;;;;;16.95;63.53;101547.53;3584280;39;20055;-69
2023/06/08 01:04:08;;;;;;;17.20;7.32;;;;;;;16.91;63.01;101541.47;3581311;39;20094;-68
2023/06/08 01:06:38;;;;;;;14.30;6.78;;;;;;;16.89;63.90;101535.28;3584553;39;20059;-68
2023/06/08 01:09:51;;;;;;;14.65;6.75;;;;;;;16.81;63.31;101540.44;3582095;39;20059;-67
2023/06/08 01:12:42;;;;;;;13.85;7.00;;;;;;;16.81;64.69;101543.16;3587884;39;20378;-68
2023/06/08 01:15:26;;;;;;;12.98;6.75;;;;;;;16.78;64.59;101543.41;3582014;39;20667;-68
2023/06/08 01:18:04;;;;;;;14.45;6.93;;;;;;;16.72;64.42;101530.25;3583938;39;20072;-67
2023/06/08 01:21:22;;;;;;;11.60;6.47;;;;;;;16.75;64.48;101543.63;3590691;39;20081;-67
2023/06/08 01:24:00;;;;;;;12.98;6.70;;;;;;;16.75;64.65;101542.75;3581811;39;20056;-67
2023/06/08 01:26:28;;;;;;;11.80;6.88;;;;;;;16.70;64.43;101537.66;3587488;39;20103;-67
2023/06/08 01:28:55;;;;;;;13.23;6.60;;;;;;;16.68;65.43;101537.78;3589880;39;20473;-67
2023/06/08 01:31:21;;;;;;;15.45;6.82;;;;;;;16.63;64.66;101533.69;3581838;39;20111;-67
2023/06/08 01:33:47;;;;;;;13.60;7.25;;;;;;;16.60;65.43;101533.91;3581991;39;20370;-67
2023/06/08 01:36:28;;;;;;;10.10;7.07;;;;;;;16.55;65.03;101530.66;3581788;39;20088;-67
2023/06/08 01:39:13;;;;;;;16.63;7.57;;;;;;;16.49;65.34;101534.69;3582595;39;20055;-66
2023/06/08 01:41:47;;;;;;;15.77;7.30;;;;;;;16.43;66.04;101537.91;3582830;39;20568;-68
2023/06/08 01:44:18;;;;;;;12.75;7.68;;;;;;;16.33;66.39;101532.28;3587027;39;20055;-67
2023/06/08 01:46:55;;;;;;;14.60;7.60;;;;;;;16.11;66.44;101496.88;3582390;39;20494;-68
2023/06/08 01:49:25;;;;;;;17.27;8.38;;;;;;;16.25;66.39;101532.00;3584104;39;20390;-68
2023/06/08 01:51:51;;;;;;;13.68;7.50;;;;;;;16.19;66.96;101530.59;3584915;39;20372;-67
2023/06/08 01:54:17;;;;;;;14.43;7.80;;;;;;;16.18;67.30;101533.44;3583897;39;20059;-67
2023/06/08 01:56:42;;;;;;;19.38;8.05;;;;;;;16.15;66.92;101520.09;3584004;39;20486;-67
2023/06/08 01:59:08;;;;;;;13.98;7.00;;;;;;;16.14;66.99;101524.66;3587362;39;20278;-67
2023/06/08 02:01:34;;;;;;;12.10;7.60;;;;;;;16.12;67.11;101517.63;3589069;39;20361;-67
2023/06/08 02:04:00;;;;;;;15.55;7.22;;;;;;;16.10;67.83;101520.44;3583788;39;20075;-67
2023/06/08 02:06:25;;;;;;;14.52;8.02;;;;;;;16.09;67.63;101531.41;3582237;39;20063;-67
2023/06/08 02:08:51;;;;;;;14.82;7.75;;;;;;;16.05;67.73;101521.75;3584613;39;20070;-67
2023/06/08 02:11:16;;;;;;;16.92;7.90;;;;;;;15.96;68.26;101524.16;3582872;39;20068;-68
2023/06/08 02:13:44;;;;;;;12.48;7.63;;;;;;;15.96;68.28;101523.31;3582850;39;20060;-67
2023/06/08 02:16:11;;;;;;;15.82;7.72;;;;;;;15.90;68.71;101530.03;3586765;39;20108;-67
2023/06/08 02:18:41;;;;;;;13.95;8.23;;;;;;;15.85;68.38;101521.38;3581806;39;20130;-67
2023/06/08 02:21:08;;;;;;;14.60;8.57;;;;;;;15.79;68.83;101521.81;3581654;39;20378;-67
2023/06/08 02:23:35;;;;;;;16.77;7.55;;;;;;;15.69;69.24;101516.19;3580415;39;20507;-67
2023/06/08 02:26:01;;;;;;;19.77;8.93;;;;;;;15.74;69.46;101521.28;3581422;39;20048;-67
2023/06/08 02:28:26;;;;;;;13.70;8.50;;;;;;;15.69;69.34;101528.88;3584927;39;20067;-67
2023/06/08 02:30:52;;;;;;;15.20;7.97;;;;;;;15.66;69.55;101529.06;3581649;39;20068;-67
2023/06/08 02:33:18;;;;;;;15.95;8.20;;;;;;;15.57;69.61;101522.47;3589125;39;20059;-67
2023/06/08 02:35:43;;;;;;;12.80;8.13;;;;;;;15.59;69.97;101522.38;3582316;39;20055;-67
2023/06/08 02:38:09;;;;;;;17.17;9.15;;;;;;;15.55;69.88;101521.72;3580694;39;20060;-67
2023/06/08 02:40:35;;;;;;;14.82;8.35;;;;;;;15.52;69.72;101524.66;3582731;39;20063;-67
2023/06/08 02:43:01;;;;;;;14.65;7.80;;;;;;;15.47;69.84;101526.81;3584689;39;20052;-67
2023/06/08 02:45:26;;;;;;;19.25;8.52;;;;;;;15.40;70.09;101520.97;3584613;39;20309;-68
2023/06/08 02:47:52;;;;;;;14.32;8.40;;;;;;;15.39;70.41;101529.22;3583084;39;20083;-68
2023/06/08 02:50:18;;;;;;;16.92;9.32;;;;;;;15.35;70.75;101525.84;3586442;39;20390;-68
2023/06/08 02:52:44;;;;;;;16.15;8.85;;;;;;;15.31;70.85;101521.59;3581448;39;20071;-67
2023/06/08 02:55:09;;;;;;;18.60;9.10;;;;;;;15.15;70.64;101496.59;3579633;39;20107;-67
2023/06/08 02:57:36;;;;;;;16.67;8.90;;;;;;;15.26;70.81;101521.09;3582252;39;20054;-67
2023/06/08 03:00:07;;;;;;;24.13;9.75;;;;;;;15.01;71.00;101486.72;3582060;39;20055;-68
2023/06/08 03:02:34;;;;;;;15.25;9.05;;;;;;;15.00;70.98;101490.41;3581196;39;20052;-67
2023/06/08 03:05:03;;;;;;;16.17;9.27;;;;;;;15.16;70.77;101520.88;3587132;39;20067;-67
2023/06/08 03:07:40;;;;;;;17.55;9.40;;;;;;;14.38;71.55;101396.34;3581084;39;20059;-67
2023/06/08 03:10:07;;;;;;;16.63;8.77;;;;;;;15.04;71.74;101519.88;3579496;39;20068;-67
2023/06/08 03:12:33;;;;;;;15.90;9.13;;;;;;;15.00;71.75;101515.66;3583836;39;20103;-67
2023/06/08 03:14:59;;;;;;;15.10;8.95;;;;;;;15.00;71.58;101512.06;3580775;39;20138;-67
2023/06/08 03:17:26;;;;;;;14.10;8.93;;;;;;;14.79;72.22;101481.94;3584175;39;20046;-68
2023/06/08 03:19:53;;;;;;;19.10;9.65;;;;;;;14.98;71.97;101514.88;3583189;39;20063;-68
2023/06/08 03:22:24;;;;;;;20.67;9.82;;;;;;;14.91;71.93;101508.16;3585371;39;20079;-68
2023/06/08 03:24:50;;;;;;;18.42;9.20;;;;;;;14.89;71.96;101510.09;3584835;39;20089;-68
2023/06/08 03:27:16;;;;;;;18.13;10.02;;;;;;;14.79;72.01;101498.19;3581026;39;20126;-69
2023/06/08 03:29:42;;;;;;;16.77;9.05;;;;;;;14.88;72.30;101523.75;3584058;39;20063;-68
2023/06/08 03:32:08;;;;;;;16.00;9.15;;;;;;;14.80;72.29;101521.56;3581156;39;20296;-68
2023/06/08 03:34:34;;;;;;;18.58;10.30;;;;;;;14.50;72.36;101471.25;3582474;39;20063;-69
2023/06/08 03:37:00;;;;;;;14.95;9.07;;;;;;;14.74;72.97;101522.84;3578058;39;20062;-68
2023/06/08 03:39:26;;;;;;;15.70;9.15;;;;;;;14.63;73.18;101509.19;3585476;39;20310;-68
2023/06/08 03:41:51;;;;;;;14.93;9.18;;;;;;;14.71;73.31;101522.19;3588182;39;20133;-69
2023/06/08 03:44:17;;;;;;;19.38;9.75;;;;;;;14.69;73.27;101524.16;3584067;39;20083;-68
2023/06/08 03:46:44;;;;;;;18.23;10.32;;;;;;;14.67;73.02;101521.53;3584861;39;20300;-69
2023/06/08 03:49:10;;;;;;;15.18;9.77;;;;;;;14.68;73.47;101516.97;3585289;39;20626;-69
2023/06/08 03:51:35;;;;;;;15.40;9.20;;;;;;;14.66;73.42;101514.41;3581689;39;20055;-69
2023/06/08 03:54:01;;;;;;;14.85;9.65;;;;;;;14.67;73.60;101516.13;3581378;39;20055;-69
2023/06/08 03:56:27;;;;;;;17.73;9.13;;;;;;;14.69;73.33;101518.75;3585429;39;20051;-69
2023/06/08 03:58:53;;;;;;;18.10;9.63;;;;;;;14.36;73.55;101464.03;3584446;40;20068;-69
2023/06/08 04:01:22;;;;;;;18.50;10.10;;;;;;;14.68;73.71;101515.13;3579214;39;20094;-70
2023/06/08 04:03:48;;;;;;;18.58;10.15;;;;;;;14.13;73.41;101419.63;3585180;39;20475;-69
2023/06/08 04:06:16;;;;;;;18.58;9.85;;;;;;;14.72;73.38;101515.81;3585319;39;20051;-69
2023/06/08 04:08:44;;;;;;;16.73;10.25;;;;;;;14.74;73.05;101513.84;3581168;39;20125;-70
2023/06/08 04:11:13;;;;;;;18.45;10.10;;;;;;;14.60;72.91;101488.63;3572449;39;20391;-69
2023/06/08 04:13:40;;;;;;;14.88;9.23;;;;;;;14.73;73.46;101531.09;3581825;39;20729;-69
2023/06/08 04:16:09;;;;;;;16.60;9.85;;;;;;;14.67;73.38;101517.97;3584946;39;20568;-69
2023/06/08 04:18:39;;;;;;;17.02;9.85;;;;;;;14.69;73.41;101529.56;3583115;39;20139;-69
2023/06/08 04:21:06;;;;;;;16.20;9.48;;;;;;;14.68;73.38;101517.84;3587120;39;20258;-69
2023/06/08 04:23:34;;;;;;;15.55;9.80;;;;;;;14.69;73.64;101508.78;3585794;39;20089;-69
2023/06/08 04:26:08;;;;;;;16.02;9.57;;;;;;;14.71;72.83;101512.22;3584250;39;20048;-69
2023/06/08 04:28:34;;;;;;;16.25;9.82;;;;;;;14.69;73.49;101507.91;3581203;39;20048;-69
2023/06/08 04:31:01;;;;;;;13.73;9.00;;;;;;;14.71;73.50;101509.50;3586397;39;20286;-69
2023/06/08 04:33:31;;;;;;;19.05;10.93;;;;;;;14.70;73.19;101507.78;3588073;39;20055;-69
2023/06/08 04:35:57;;;;;;;16.67;9.90;;;;;;;14.58;73.36;101490.53;3581921;39;20116;-69
2023/06/08 04:38:22;;;;;;;17.90;10.60;;;;;;;14.74;72.71;101509.31;3587821;39;20075;-69
2023/06/08 04:40:53;;;;;;;20.15;10.02;;;;;;;14.66;72.66;101500.88;3585891;39;20351;-69
2023/06/08 04:43:25;;;;;;;17.88;10.93;;;;;;;14.45;73.14;101465.28;3582163;39;20048;-69
2023/06/08 04:45:57;;;;;;;16.08;9.95;;;;;;;14.74;72.83;101508.44;3585266;39;20060;-68
2023/06/08 04:48:27;;;;;;;16.48;10.25;;;;;;;14.74;73.03;101516.56;3576503;40;20119;-68
2023/06/08 04:50:59;;;;;;;18.30;10.55;;;;;;;14.72;73.15;101513.13;3585886;39;20062;-68
2023/06/08 04:53:26;;;;;;;17.37;10.87;;;;;;;14.48;72.80;101467.75;3582564;39;20067;-68
2023/06/08 04:55:57;;;;;;;21.40;11.48;;;;;;;14.67;73.15;101509.84;3581997;39;20100;-69
2023/06/08 04:58:25;;;;;;;19.60;11.10;;;;;;;14.58;73.29;101490.53;3584196;39;20135;-68
2023/06/08 05:00:52;;;;;;;19.02;11.18;;;;;;;14.71;72.99;101506.81;3582798;39;20060;-69
2023/06/08 05:03:19;;;;;;;17.65;10.82;;;;;;;14.69;73.03;101494.38;3587941;39;20407;-68
2023/06/08 05:05:45;;;;;;;18.02;11.23;;;;;;;14.76;72.41;101499.25;3588075;39;20105;-68
2023/06/08 05:08:11;;;;;;;17.08;11.15;;;;;;;14.78;73.05;101501.84;3585045;39;20063;-68
2023/06/08 05:10:36;;;;;;;17.92;10.60;;;;;;;14.80;72.30;101508.03;3585895;39;20064;-68
2023/06/08 05:13:02;;;;;;;17.30;10.95;;;;;;;14.80;72.07;101502.63;3585020;39;20063;-69
2023/06/08 05:15:31;;;;;;;18.08;10.15;;;;;;;14.81;71.69;101507.03;3583268;39;20358;-68
2023/06/08 05:17:57;;;;;;;18.40;10.50;;;;;;;14.84;72.27;101501.41;3585346;39;20060;-69
2023/06/08 05:20:25;;;;;;;15.73;11.00;;;;;;;14.83;71.64;101495.16;3583751;39;20062;-68
2023/06/08 05:22:51;;;;;;;16.85;10.77;;;;;;;14.86;72.11;101507.59;3582011;39;20092;-69
2023/06/08 05:25:17;;;;;;;18.95;11.13;;;;;;;14.91;72.20;101497.34;3585643;39;20120;-68
2023/06/08 05:27:43;;;;;;;14.80;10.18;;;;;;;14.77;71.30;101471.22;3585084;39;20392;-69
2023/06/08 05:30:09;;;;;;;14.50;9.82;;;;;;;14.97;71.14;101499.63;3586280;39;20091;-68
2023/06/08 05:32:35;;;;;;;17.00;10.43;;;;;;;14.96;71.06;101495.16;3582027;39;20047;-68
2023/06/08 05:35:01;;;;;;;16.83;10.95;;;;;;;15.02;70.80;101496.59;3584521;39;20578;-68
2023/06/08 05:37:27;;;;;;;15.30;9.82;;;;;;;15.04;70.62;101498.22;3582854;39;20051;-69
2023/06/08 05:39:53;;;;;;;20.63;10.80;;;;;;;15.01;70.18;101487.59;3581563;39;20060;-68
2023/06/08 05:42:19;;;;;;;18.75;11.45;;;;;;;15.13;70.44;101495.81;3584643;39;20542;-68
2023/06/08 05:44:45;;;;;;;16.80;10.98;;;;;;;15.02;70.06;101500.16;3585576;39;20059;-68
2023/06/08 05:47:10;;;;;;;19.67;10.63;;;;;;;15.16;70.57;101498.31;3585435;39;20364;-68
2023/06/08 05:49:36;;;;;;;16.73;11.00;;;;;;;15.25;70.39;101489.53;3586445;39;20076;-68
2023/06/08 05:52:02;;;;;;;16.13;10.98;;;;;;;15.31;70.10;101494.53;3576045;40;20063;-68
2023/06/08 05:54:27;;;;;;;16.55;10.05;;;;;;;15.30;69.47;101460.28;3583699;39;20389;-68
2023/06/08 05:56:53;;;;;;;17.30;10.98;;;;;;;15.42;68.64;101488.34;3581366;39;20083;-68
2023/06/08 05:59:19;;;;;;;20.98;10.52;;;;;;;15.46;68.93;101493.44;3583420;39;20158;-68
2023/06/08 06:01:45;;;;;;;16.45;10.60;;;;;;;15.56;68.80;101494.50;3581639;39;20123;-68
2023/06/08 06:04:11;;;;;;;14.85;10.27;;;;;;;15.67;68.41;101498.34;3577221;39;20056;-68
2023/06/08 06:06:37;;;;;;;17.00;10.45;;;;;;;15.73;67.49;101493.31;3587179;39;20088;-69
2023/06/08 06:09:03;;;;;;;18.17;10.52;;;;;;;15.85;67.47;101494.25;3583628;39;20052;-68
2023/06/08 06:11:30;;;;;;;17.73;10.75;;;;;;;15.96;67.61;101490.78;3581244;39;20410;-68
2023/06/08 06:13:58;;;;;;;20.83;10.93;;;;;;;15.98;66.96;101480.66;3580288;39;20056;-69
2023/06/08 06:16:23;;;;;;;20.30;11.50;;;;;;;16.14;66.77;101491.22;3582566;39;20317;-69
2023/06/08 06:18:50;;;;;;;60.03;46.80;;;;;;;16.24;67.00;101486.88;3583249;39;20411;-70
2023/06/08 06:21:16;;;;;;;20.33;11.90;;;;;;;16.37;65.95;101484.97;3587583;39;20327;-69
2023/06/08 06:23:44;;;;;;;20.30;11.77;;;;;;;16.48;66.29;101487.69;3586356;39;20289;-69
2023/06/08 06:26:11;;;;;;;21.15;11.88;;;;;;;16.57;66.06;101491.56;3582451;39;20575;-69
2023/06/08 06:28:38;;;;;;;14.88;10.60;;;;;;;16.69;65.62;101489.78;3582041;39;20119;-69
2023/06/08 06:31:04;;;;;;;16.23;10.75;;;;;;;16.92;65.05;101496.16;3574078;40;20043;-69
2023/06/08 06:33:30;;;;;;;16.60;11.30;;;;;;;17.05;63.68;101502.34;3582494;39;20055;-69
2023/06/08 06:35:55;;;;;;;23.77;17.42;;;;;;;17.22;63.98;101501.06;3580581;39;20063;-69
2023/06/08 06:38:21;;;;;;;20.58;11.27;;;;;;;17.32;62.66;101498.47;3583477;39;20065;-69
2023/06/08 06:40:52;;;;;;;20.40;11.32;;;;;;;17.49;62.84;101500.69;3585091;39;20071;-67
2023/06/08 06:43:20;;;;;;;16.40;11.00;;;;;;;17.57;62.22;101487.34;3576224;39;20059;-68
2023/06/08 06:45:50;;;;;;;23.30;16.80;;;;;;;17.74;61.81;101499.56;3582348;39;20160;-68
2023/06/08 06:48:18;;;;;;;16.20;12.25;;;;;;;17.92;62.28;101501.78;3583089;39;20051;-68
2023/06/08 06:50:44;;;;;;;16.80;11.88;;;;;;;17.85;60.98;101469.66;3583198;39;20296;-68
2023/06/08 06:53:10;;;;;;;16.55;10.75;;;;;;;18.24;61.06;101502.75;3584690;39;20063;-68
2023/06/08 06:55:35;;;;;;;17.20;10.50;;;;;;;18.37;61.08;101509.88;3584056;39;20062;-67
2023/06/08 06:58:02;;;;;;;15.48;10.23;;;;;;;18.49;59.92;101506.09;3580679;39;20115;-68
2023/06/08 07:00:32;;;;;;;17.52;10.35;;;;;;;18.55;59.94;101494.69;3584506;39;20051;-68
2023/06/08 07:02:58;;;;;;;16.98;10.95;;;;;;;18.73;58.85;101498.59;3580944;39;20044;-68
2023/06/08 07:05:24;;;;;;;18.27;10.63;;;;;;;18.91;57.90;101511.66;3585006;39;20404;-67
2023/06/08 07:07:50;;;;;;;21.77;14.05;;;;;;;19.01;58.88;101496.22;3581194;39;20104;-68
2023/06/08 07:10:15;;;;;;;15.93;10.48;;;;;;;19.18;57.66;101501.06;3584568;39;20271;-67
2023/06/08 07:12:41;;;;;;;18.70;11.00;;;;;;;19.29;56.14;101505.59;3582954;40;20398;-67
2023/06/08 07:15:08;;;;;;;16.17;9.95;;;;;;;19.38;58.02;101502.06;3584598;39;20366;-68
2023/06/08 07:17:34;;;;;;;17.08;10.63;;;;;;;19.46;57.84;101506.81;3584152;39;20055;-68
2023/06/08 07:20:00;;;;;;;17.48;11.00;;;;;;;19.63;56.42;101510.75;3583329;39;20048;-68
2023/06/08 07:22:25;;;;;;;14.43;10.23;;;;;;;19.76;56.66;101510.56;3583817;39;20075;-69
2023/06/08 07:24:52;;;;;;;15.02;9.80;;;;;;;19.95;55.42;101516.13;3579144;39;20307;-68
2023/06/08 07:27:18;;;;;;;16.73;10.60;;;;;;;20.04;54.65;101506.19;3582915;39;20074;-68
2023/06/08 07:29:44;;;;;;;15.35;10.07;;;;;;;20.14;54.86;101507.97;3583318;39;20052;-68
2023/06/08 07:32:11;;;;;;;17.50;10.43;;;;;;;20.09;54.82;101477.50;3587219;39;20051;-68
2023/06/08 07:34:37;;;;;;;16.95;11.13;;;;;;;20.35;54.37;101501.53;3575964;39;20055;-67
2023/06/08 07:37:03;;;;;;;17.05;10.90;;;;;;;20.46;53.98;101506.88;3579554;39;20060;-67
2023/06/08 07:39:28;;;;;;;12.95;10.50;;;;;;;20.47;53.84;101491.34;3586073;39;20133;-67
2023/06/08 07:41:54;;;;;;;17.80;11.05;;;;;;;20.64;53.45;101507.88;3585966;39;20091;-67
2023/06/08 07:44:19;;;;;;;16.85;10.73;;;;;;;20.75;54.19;101495.09;3582832;39;20282;-68
2023/06/08 07:46:45;;;;;;;17.70;10.82;;;;;;;20.82;53.90;101501.72;3584225;39;20051;-68
2023/06/08 07:49:10;;;;;;;16.45;10.20;;;;;;;20.95;53.53;101494.06;3580777;39;20406;-68
2023/06/08 07:51:37;;;;;;;13.88;10.07;;;;;;;21.08;52.49;101491.88;3581097;39;20052;-68
2023/06/08 07:54:03;;;;;;;16.52;10.25;;;;;;;21.13;52.95;101494.19;3582767;39;20071;-68
2023/06/08 07:56:28;;;;;;;13.98;10.02;;;;;;;21.30;52.59;101500.75;3584460;39;20073;-67
2023/06/08 07:58:54;;;;;;;15.57;9.85;;;;;;;21.43;52.44;101495.00;3583142;39;20424;-67
2023/06/08 08:01:19;;;;;;;12.57;9.52;;;;;;;21.64;52.57;101503.84;3580457;39;20052;-68
2023/06/08 08:03:45;;;;;;;16.13;9.68;;;;;;;21.79;51.06;101499.59;3580630;39;20064;-68
2023/06/08 08:06:11;;;;;;;14.70;9.85;;;;;;;21.91;50.72;101500.25;3585899;39;20798;-68
2023/06/08 08:08:36;;;;;;;14.80;10.60;;;;;;;21.97;50.74;101496.03;3585898;39;20051;-68
2023/06/08 08:11:02;;;;;;;15.70;10.50;;;;;;;21.97;50.02;101490.56;3584216;39;20068;-69
2023/06/08 08:13:28;;;;;;;14.43;10.10;;;;;;;22.02;50.59;101499.19;3582589;39;20075;-69
2023/06/08 08:15:54;;;;;;;16.35;10.65;;;;;;;22.07;50.76;101499.56;3589157;39;20040;-69
2023/06/08 08:18:20;;;;;;;14.60;11.13;;;;;;;22.08;49.41;101495.84;3583663;39;20077;-68
2023/06/08 08:20:46;;;;;;;13.80;10.95;;;;;;;22.10;49.98;101488.31;3580237;39;20071;-69
2023/06/08 08:23:12;;;;;;;14.98;10.00;;;;;;;22.24;50.59;101484.25;3583283;39;20048;-68
2023/06/08 08:25:38;;;;;;;17.13;10.35;;;;;;;22.52;50.54;101482.31;3585011;39;20070;-68
2023/06/08 08:28:03;;;;;;;14.95;10.05;;;;;;;22.71;49.73;101481.28;3585802;39;20064;-68
2023/06/08 08:30:30;;;;;;;13.13;11.00;;;;;;;22.80;48.64;101485.78;3587802;39;20141;-69
2023/06/08 08:32:56;;;;;;;17.40;10.30;;;;;;;22.90;48.49;101475.59;3581090;39;20108;-68
2023/06/08 08:35:28;;;;;;;15.23;9.60;;;;;;;23.05;47.98;101488.75;3586924;39;20298;-68
2023/06/08 08:37:53;;;;;;;16.42;10.35;;;;;;;23.14;49.16;101479.56;3582895;39;20110;-68
2023/06/08 08:40:19;;;;;;;12.48;9.60;;;;;;;23.16;48.72;101486.63;3585778;39;20122;-68
2023/06/08 08:42:56;;;;;;;15.50;10.15;;;;;;;23.25;48.36;101493.03;3574034;40;20114;-69
2023/06/08 08:45:29;;;;;;;15.43;10.88;;;;;;;23.44;46.68;101482.81;3583897;40;20068;-68
2023/06/08 08:47:56;;;;;;;15.75;10.32;;;;;;;23.60;47.28;101485.69;3587833;39;20081;-69
2023/06/08 08:50:22;;;;;;;13.95;9.40;;;;;;;23.73;47.14;101485.25;3581649;39;20056;-68
2023/06/08 08:52:54;;;;;;;15.77;12.50;;;;;;;23.87;47.30;101476.38;3586936;39;20100;-68
2023/06/08 08:55:27;;;;;;;17.00;12.38;;;;;;;23.36;46.20;101382.97;3579945;39;20076;-67
2023/06/08 08:57:57;;;;;;;13.05;9.50;;;;;;;24.16;46.41;101473.19;3582516;39;20067;-68
2023/06/08 09:00:23;;;;;;;16.33;9.43;;;;;;;24.07;46.50;101452.22;3584928;39;20056;-69
2023/06/08 09:02:50;;;;;;;11.15;8.65;;;;;;;24.29;45.50;101472.69;3582654;40;20051;-69
2023/06/08 09:05:17;;;;;;;12.52;8.82;;;;;;;24.47;46.71;101476.19;3588122;39;20066;-69
2023/06/08 09:07:42;;;;;;;11.80;8.95;;;;;;;24.69;45.28;101480.19;3584962;40;20119;-69
2023/06/08 09:10:21;;;;;;;12.73;9.40;;;;;;;24.64;45.09;101432.22;3585038;39;20713;-69
2023/06/08 09:12:50;;;;;;;12.80;8.77;;;;;;;24.88;44.98;101469.88;3583714;39;20047;-69
2023/06/08 09:15:33;;;;;;;15.10;9.10;;;;;;;24.88;44.50;101478.97;3585902;39;20165;-69
2023/06/08 09:18:13;;;;;;;12.65;9.00;;;;;;;24.87;43.87;101457.16;3584966;39;20414;-69
2023/06/08 09:20:39;;;;;;;12.73;8.40;;;;;;;25.23;45.42;101471.41;3588028;39;20063;-69
2023/06/08 09:23:21;;;;;;;11.25;9.00;;;;;;;25.27;45.21;101469.16;3573447;39;20055;-69
2023/06/08 09:25:47;;;;;;;10.50;8.13;;;;;;;25.02;43.23;101431.53;3585030;39;20047;-69
2023/06/08 09:28:22;;;;;;;11.80;8.00;;;;;;;25.43;43.96;101466.34;3580165;40;20064;-69
2023/06/08 09:30:51;;;;;;;10.30;7.50;;;;;;;25.63;42.57;101461.31;3584770;39;20594;-69
2023/06/08 09:33:17;;;;;;;10.20;7.65;;;;;;;25.79;43.41;101465.88;3585044;39;20051;-69
2023/06/08 09:35:43;;;;;;;11.82;6.70;;;;;;;25.92;42.18;101471.72;3588036;39;20051;-70
2023/06/08 09:38:21;;;;;;;18.17;13.10;;;;;;;26.05;42.62;101460.94;3581819;39;20141;-69
2023/06/08 09:40:49;;;;;;;9.50;7.68;;;;;;;26.09;41.79;101454.03;3583698;39;20048;-70
2023/06/08 09:43:34;;;;;;;20.45;15.20;;;;;;;26.25;44.39;101460.47;3586151;39;20055;-69
2023/06/08 09:46:00;;;;;;;10.60;7.20;;;;;;;26.42;41.23;101463.97;3584242;39;20059;-69
2023/06/08 09:48:25;;;;;;;10.57;7.68;;;;;;;26.59;41.05;101452.69;3581035;39;20087;-70
2023/06/08 09:51:00;;;;;;;10.15;7.20;;;;;;;26.72;41.60;101462.22;3584108;39;20135;-70
2023/06/08 09:53:31;;;;;;;10.73;6.93;;;;;;;26.77;41.03;101451.50;3583363;39;20129;-69
2023/06/08 09:55:58;;;;;;;9.48;6.75;;;;;;;26.78;40.04;101422.88;3586266;39;20054;-70
2023/06/08 09:58:25;;;;;;;12.15;7.13;;;;;;;27.11;40.55;101447.38;3582181;39;20314;-70
2023/06/08 10:01:06;;;;;;;7.47;5.75;;;;;;;27.06;40.30;101439.69;3582742;39;20378;-70
2023/06/08 10:03:39;;;;;;;8.73;6.00;;;;;;;27.20;39.81;101454.56;3579426;39;20113;-70
2023/06/08 10:06:09;;;;;;;8.70;6.07;;;;;;;27.37;39.78;101444.19;3583191;39;20458;-69
2023/06/08 10:08:39;;;;;;;8.82;5.38;;;;;;;27.37;38.44;101433.13;3581795;39;20056;-70
2023/06/08 10:11:10;;;;;;;7.95;6.13;;;;;;;27.29;39.69;101404.59;3587314;39;20310;-69
2023/06/08 10:13:35;;;;;;;10.07;6.30;;;;;;;27.64;40.46;101446.28;3588957;39;20047;-70
2023/06/08 10:16:02;;;;;;;12.05;8.02;;;;;;;27.77;39.05;101434.56;3584782;39;20483;-69
2023/06/08 10:18:30;;;;;;;10.88;7.32;;;;;;;27.93;38.05;101439.00;3584501;39;20055;-70
2023/06/08 10:20:57;;;;;;;9.20;5.18;;;;;;;27.91;38.79;101432.81;3584627;39;20056;-69
2023/06/08 10:23:26;;;;;;;9.55;5.38;;;;;;;28.08;37.81;101437.06;3583402;39;20052;-69
2023/06/08 10:25:53;;;;;;;6.25;4.80;;;;;;;28.17;38.27;101435.06;3584325;39;20133;-69
2023/06/08 10:28:20;;;;;;;7.43;5.93;;;;;;;28.17;36.86;101418.47;3589002;39;20390;-69
2023/06/08 10:30:46;;;;;;;7.03;4.45;;;;;;;28.30;36.77;101429.66;3583830;39;20052;-69
2023/06/08 10:33:20;;;;;;;6.60;4.80;;;;;;;28.51;37.81;101425.19;3584386;39;20375;-69
2023/06/08 10:36:07;;;;;;;6.85;4.28;;;;;;;28.56;35.86;101428.22;3581250;39;20346;-69
2023/06/08 10:38:59;;;;;;;5.40;4.10;;;;;;;28.57;36.55;101419.72;3585434;39;20123;-70
2023/06/08 10:41:41;;;;;;;14.18;10.65;;;;;;;28.54;37.44;101417.34;3581503;39;20130;-69
2023/06/08 10:44:29;;;;;;;6.10;4.05;;;;;;;28.54;36.19;101416.50;3582648;39;22098;-69
2023/06/08 10:47:06;;;;;;;7.18;4.10;;;;;;;28.59;37.02;101409.31;3582708;39;20354;-70
2023/06/08 10:49:37;;;;;;;6.47;4.38;;;;;;;28.75;35.99;101404.56;3582639;39;20063;-69
2023/06/08 10:52:11;;;;;;;7.78;4.50;;;;;;;28.80;36.37;101411.22;3582428;39;20059;-69
2023/06/08 10:55:08;;;;;;;7.03;5.32;;;;;;;28.55;36.25;101409.94;3584678;39;20071;-69
2023/06/08 10:58:02;;;;;;;6.35;4.90;;;;;;;28.59;37.47;101403.78;3574908;39;20051;-70
2023/06/08 11:00:32;;;;;;;7.65;5.40;;;;;;;28.77;36.79;101400.53;3580773;40;20062;-69
2023/06/08 11:03:05;;;;;;;8.35;4.65;;;;;;;28.72;37.27;101394.75;3581362;39;20063;-70
2023/06/08 11:05:36;;;;;;;8.05;4.07;;;;;;;28.81;36.34;101395.47;3580503;39;20076;-69
2023/06/08 11:08:03;;;;;;;9.85;6.38;;;;;;;29.02;36.75;101397.31;3582112;39;20070;-70
2023/06/08 11:10:33;;;;;;;33.90;13.93;;;;;;;28.98;35.19;101398.75;3579866;39;20055;-70
2023/06/08 11:13:19;;;;;;;11.20;7.13;;;;;;;28.44;35.00;101306.19;3575796;39;20309;-70
2023/06/08 11:15:47;;;;;;;8.57;4.78;;;;;;;28.70;35.65;101349.81;3582658;39;20125;-69
2023/06/08 11:18:13;;;;;;;6.45;4.82;;;;;;;28.87;37.03;101389.13;3581626;39;20116;-69
2023/06/08 11:20:42;;;;;;;8.38;4.68;;;;;;;29.03;35.68;101386.06;3582634;39;20048;-69